Ye Chi — VRFV6 — position and weather

sailwx.info

Track history (hours):
 
Tides and Currents Weather Stations Pressure Air Temp Water Temp Dewpoint Dewpoint Depression Visibility Wind Speed Wind Dir Waves Ship Positions

Ye Chi

Last reported at 2014-Sep-01 10:15 UTC. Time now 2014-Sep-01 13:45 UTC.
Position N 01°12' E 103°48'.

Length 187 m; draft 9.6 m.

Type: Ship. MMSI: 477621300.

Date/timePositionNaut miles runAvg speedWind from/ knotsBaromVisibWave heightAir tempDewpointWater temp
2014-Sep-01 10:15N 01°12' E 103°48'1 1.2
2014-Sep-01 09:33N 01°13' E 103°48'1 0.9
2014-Sep-01 08:16N 01°14' E 103°48'0 0.1
2014-Sep-01 07:31N 01°14' E 103°48'0 0.0
2014-Sep-01 06:13N 01°14' E 103°48'0 0.0
2014-Sep-01 05:25N 01°14' E 103°48'0 0.1
2014-Sep-01 04:28N 01°14' E 103°48'0 0.0
2014-Sep-01 03:28N 01°14' E 103°48'0 0.1
2014-Sep-01 02:31N 01°14' E 103°48'0 0.0
2014-Sep-01 01:28N 01°14' E 103°48'0 0.4
2014-Sep-01 00:33N 01°14' E 103°48'7 7.4
2014-Aug-31 23:33N 01°14' E 103°55'7 6.5
2014-Aug-31 22:34N 01°16' E 104°02'  
2014-Aug-26 17:15N 22°38' E 117°10'912.2
2014-Aug-26 16:33N 22°46' E 117°13'1712.5
2014-Aug-26 15:12N 23°01' E 117°22'812.0
2014-Aug-26 14:32N 23°07' E 117°28'1411.6
2014-Aug-26 13:20N 23°17' E 117°39'1011.7
2014-Aug-26 12:31N 23°23' E 117°47'1212.3
2014-Aug-26 11:33N 23°30' E 117°57'1312.7
2014-Aug-26 10:33N 23°39' E 118°07'1313.2
2014-Aug-26 09:33N 23°48' E 118°18'1413.6
2014-Aug-26 08:32N 23°57' E 118°29'1313.7
2014-Aug-26 07:33N 24°06' E 118°40'1714.2
2014-Aug-26 06:21N 24°18' E 118°53'1214.3
2014-Aug-26 05:33N 24°26' E 119°02'1414.3
2014-Aug-26 04:33N 24°36' E 119°14'1713.7
2014-Aug-26 03:20N 24°47' E 119°27'1012.6
2014-Aug-26 02:33N 24°54' E 119°35'1613.1
2014-Aug-26 01:19N 25°06' E 119°47'1413.2
2014-Aug-26 00:17N 25°16' E 119°57'33510.9
2014-Aug-24 17:33N 29°59' E 123°20'1211.6
2014-Aug-24 16:30N 30°11' E 123°21'1411.3
2014-Aug-24 15:14N 30°25' E 123°21'1810.5
2014-Aug-24 13:33N 30°43' E 123°17'9 9.2
2014-Aug-24 12:33N 30°51' E 123°14'1410.3
2014-Aug-24 11:09N 31°03' E 123°03'2211.4
2014-Aug-24 09:15N 31°05' E 122°38'811.9
2014-Aug-24 08:33N 31°05' E 122°28'1110.6
2014-Aug-24 07:30N 31°08' E 122°16'1514.2
2014-Aug-24 06:27N 31°15' E 122°00'1312.9
2014-Aug-24 05:28N 31°18' E 121°46'910.3
2014-Aug-24 04:33N 31°23' E 121°36'2 2.4
2014-Aug-24 03:34N 31°23' E 121°33'0 0.0
2014-Aug-24 02:33N 31°23' E 121°33'0 0.0
2014-Aug-24 01:33N 31°23' E 121°33'0 0.0
2014-Aug-24 00:34N 31°23' E 121°33'0 0.1
2014-Aug-23 23:25N 31°23' E 121°33'0 0.1
2014-Aug-23 22:25N 31°23' E 121°33'0 0.0
2014-Aug-23 21:31N 31°23' E 121°33'0 0.0
2014-Aug-23 20:25N 31°23' E 121°33'0 0.0
2014-Aug-23 19:31N 31°23' E 121°33'0 0.0
2014-Aug-23 03:07N 31°23' E 121°33'0 0.1
2014-Aug-23 02:25N 31°23' E 121°33'0 0.0
2014-Aug-23 01:31N 31°23' E 121°33'0 0.0
2014-Aug-23 00:07N 31°23' E 121°33'0 0.1
2014-Aug-22 23:25N 31°23' E 121°33'0 0.1
2014-Aug-22 22:13N 31°23' E 121°33'0 0.0
2014-Aug-22 21:31N 31°23' E 121°33'0 0.0
2014-Aug-22 20:31N 31°23' E 121°33'0 0.0
2014-Aug-22 19:19N 31°23' E 121°33'0 0.0
2014-Aug-22 18:31N 31°23' E 121°33'0 0.0
2014-Aug-22 17:31N 31°23' E 121°33'0 0.0
2014-Aug-22 16:25N 31°23' E 121°33'0 0.0
2014-Aug-22 15:25N 31°23' E 121°33'0 0.0
2014-Aug-22 14:13N 31°23' E 121°33'0 0.0
2014-Aug-22 13:07N 31°23' E 121°33'0 0.0
2014-Aug-22 12:31N 31°23' E 121°33'0 0.0
2014-Aug-22 10:31N 31°23' E 121°33'  
Track history (hours):
 
Tides and Currents Weather Stations Pressure Air Temp Water Temp Dewpoint Dewpoint Depression Visibility Wind Speed Wind Dir Waves Ship Positions

Ye Chi

Last reported at 2014-Sep-01 10:15 UTC. Time now 2014-Sep-01 13:45 UTC.
Position N 01°12' E 103°48'.

Length 187 m; draft 9.6 m.

Type: Ship. MMSI: 477621300.

Date/timePositionNaut miles runAvg speedWind from/ knotsBaromVisibWave heightAir tempDewpointWater temp
2014-Sep-01 10:15N 01°12' E 103°48'1 1.2
2014-Sep-01 09:33N 01°13' E 103°48'1 0.9
2014-Sep-01 08:16N 01°14' E 103°48'0 0.1
2014-Sep-01 07:31N 01°14' E 103°48'0 0.0
2014-Sep-01 06:13N 01°14' E 103°48'0 0.0
2014-Sep-01 05:25N 01°14' E 103°48'0 0.1
2014-Sep-01 04:28N 01°14' E 103°48'0 0.0
2014-Sep-01 03:28N 01°14' E 103°48'0 0.1
2014-Sep-01 02:31N 01°14' E 103°48'0 0.0
2014-Sep-01 01:28N 01°14' E 103°48'0 0.4
2014-Sep-01 00:33N 01°14' E 103°48'7 7.4
2014-Aug-31 23:33N 01°14' E 103°55'7 6.5
2014-Aug-31 22:34N 01°16' E 104°02'  
2014-Aug-26 17:15N 22°38' E 117°10'912.2
2014-Aug-26 16:33N 22°46' E 117°13'1712.5
2014-Aug-26 15:12N 23°01' E 117°22'812.0
2014-Aug-26 14:32N 23°07' E 117°28'1411.6
2014-Aug-26 13:20N 23°17' E 117°39'1011.7
2014-Aug-26 12:31N 23°23' E 117°47'1212.3
2014-Aug-26 11:33N 23°30' E 117°57'1312.7
2014-Aug-26 10:33N 23°39' E 118°07'1313.2
2014-Aug-26 09:33N 23°48' E 118°18'1413.6
2014-Aug-26 08:32N 23°57' E 118°29'1313.7
2014-Aug-26 07:33N 24°06' E 118°40'1714.2
2014-Aug-26 06:21N 24°18' E 118°53'1214.3
2014-Aug-26 05:33N 24°26' E 119°02'1414.3
2014-Aug-26 04:33N 24°36' E 119°14'1713.7
2014-Aug-26 03:20N 24°47' E 119°27'1012.6
2014-Aug-26 02:33N 24°54' E 119°35'1613.1
2014-Aug-26 01:19N 25°06' E 119°47'1413.2
2014-Aug-26 00:17N 25°16' E 119°57'33510.9
2014-Aug-24 17:33N 29°59' E 123°20'1211.6
2014-Aug-24 16:30N 30°11' E 123°21'1411.3
2014-Aug-24 15:14N 30°25' E 123°21'1810.5
2014-Aug-24 13:33N 30°43' E 123°17'9 9.2
2014-Aug-24 12:33N 30°51' E 123°14'1410.3
2014-Aug-24 11:09N 31°03' E 123°03'2211.4
2014-Aug-24 09:15N 31°05' E 122°38'811.9
2014-Aug-24 08:33N 31°05' E 122°28'1110.6
2014-Aug-24 07:30N 31°08' E 122°16'1514.2
2014-Aug-24 06:27N 31°15' E 122°00'1312.9
2014-Aug-24 05:28N 31°18' E 121°46'910.3
2014-Aug-24 04:33N 31°23' E 121°36'2 2.4
2014-Aug-24 03:34N 31°23' E 121°33'0 0.0
2014-Aug-24 02:33N 31°23' E 121°33'0 0.0
2014-Aug-24 01:33N 31°23' E 121°33'0 0.0
2014-Aug-24 00:34N 31°23' E 121°33'0 0.1
2014-Aug-23 23:25N 31°23' E 121°33'0 0.1
2014-Aug-23 22:25N 31°23' E 121°33'0 0.0
2014-Aug-23 21:31N 31°23' E 121°33'0 0.0
2014-Aug-23 20:25N 31°23' E 121°33'0 0.0
2014-Aug-23 19:31N 31°23' E 121°33'0 0.0
2014-Aug-23 03:07N 31°23' E 121°33'0 0.1
2014-Aug-23 02:25N 31°23' E 121°33'0 0.0
2014-Aug-23 01:31N 31°23' E 121°33'0 0.0
2014-Aug-23 00:07N 31°23' E 121°33'0 0.1
2014-Aug-22 23:25N 31°23' E 121°33'0 0.1
2014-Aug-22 22:13N 31°23' E 121°33'0 0.0
2014-Aug-22 21:31N 31°23' E 121°33'0 0.0
2014-Aug-22 20:31N 31°23' E 121°33'0 0.0
2014-Aug-22 19:19N 31°23' E 121°33'0 0.0
2014-Aug-22 18:31N 31°23' E 121°33'0 0.0
2014-Aug-22 17:31N 31°23' E 121°33'0 0.0
2014-Aug-22 16:25N 31°23' E 121°33'0 0.0
2014-Aug-22 15:25N 31°23' E 121°33'0 0.0
2014-Aug-22 14:13N 31°23' E 121°33'0 0.0
2014-Aug-22 13:07N 31°23' E 121°33'0 0.0
2014-Aug-22 12:31N 31°23' E 121°33'0 0.0
2014-Aug-22 10:31N 31°23' E 121°33'  

Dump ship's entire track history